createdAt,value
2019-01-13T00:00:11.671Z,-3.90
2019-01-13T00:02:53.911Z,-3.90
2019-01-13T00:05:36.923Z,-3.90
2019-01-13T00:08:19.990Z,-4.00
2019-01-13T00:11:02.664Z,-4.10
2019-01-13T00:13:46.899Z,-4.20
2019-01-13T00:16:29.616Z,-4.40
2019-01-13T00:19:17.360Z,-4.50
2019-01-13T00:22:02.858Z,-4.50
2019-01-13T00:24:45.211Z,-4.50
2019-01-13T00:27:27.872Z,-4.60
2019-01-13T00:30:10.095Z,-4.60
2019-01-13T00:32:53.006Z,-4.60
2019-01-13T00:35:35.310Z,-4.60
2019-01-13T00:38:20.995Z,-4.60
2019-01-13T00:41:02.956Z,-4.60
2019-01-13T00:43:45.959Z,-4.50
2019-01-13T00:46:31.032Z,-4.50
2019-01-13T00:49:13.726Z,-4.50
2019-01-13T00:51:56.912Z,-4.50
2019-01-13T00:54:39.379Z,-4.50
2019-01-13T00:57:21.596Z,-4.60
2019-01-13T01:00:05.276Z,-4.60
2019-01-13T01:02:48.150Z,-4.60
2019-01-13T01:05:31.424Z,-4.70
2019-01-13T01:08:14.465Z,-4.70
2019-01-13T01:10:57.680Z,-4.80
2019-01-13T01:13:40.641Z,-4.80
2019-01-13T01:16:23.850Z,-4.80
2019-01-13T01:19:05.927Z,-4.90
2019-01-13T01:21:49.221Z,-4.80
2019-01-13T01:24:31.368Z,-4.80
2019-01-13T01:27:13.969Z,-4.80
2019-01-13T01:29:56.186Z,-4.80
2019-01-13T01:32:38.817Z,-4.90
2019-01-13T01:35:20.706Z,-5.00
2019-01-13T01:38:03.520Z,-5.00
2019-01-13T01:40:45.839Z,-5.10
2019-01-13T01:43:28.781Z,-5.10
2019-01-13T01:46:11.903Z,-5.10
2019-01-13T01:48:55.074Z,-5.10
2019-01-13T01:54:25.734Z,-5.00
2019-01-13T01:57:09.190Z,-5.10
2019-01-13T01:59:53.268Z,-5.20
2019-01-13T02:02:36.470Z,-5.30
2019-01-13T02:05:19.820Z,-5.40
2019-01-13T02:08:02.544Z,-5.40
2019-01-13T02:10:45.672Z,-5.40
2019-01-13T02:13:28.840Z,-5.40
2019-01-13T02:15:58.445Z,-5.40
2019-01-13T02:18:41.837Z,-5.40
2019-01-13T02:21:24.782Z,-5.40
2019-01-13T02:24:07.825Z,-5.40
2019-01-13T02:26:53.437Z,-5.30
2019-01-13T02:29:35.901Z,-5.30
2019-01-13T02:32:18.518Z,-5.20
2019-01-13T02:35:00.952Z,-5.20
2019-01-13T02:37:44.370Z,-5.20
2019-01-13T02:40:26.808Z,-5.10
2019-01-13T02:43:09.324Z,-5.10
2019-01-13T02:45:55.436Z,-5.00
2019-01-13T02:51:28.524Z,-4.90
2019-01-13T02:54:11.577Z,-4.80
2019-01-13T02:56:54.391Z,-4.80
2019-01-13T02:59:37.434Z,-4.70
2019-01-13T03:02:20.565Z,-4.70
2019-01-13T03:05:03.430Z,-4.60
2019-01-13T03:07:46.497Z,-4.50
2019-01-13T03:10:29.922Z,-4.50
2019-01-13T03:13:12.638Z,-4.40
2019-01-13T03:15:56.081Z,-4.30
2019-01-13T03:21:20.361Z,-4.20
2019-01-13T03:24:03.669Z,-4.10
2019-01-13T03:26:46.895Z,-4.10
2019-01-13T03:29:29.928Z,-4.00
2019-01-13T03:32:15.932Z,-3.90
2019-01-13T03:34:58.709Z,-3.80
2019-01-13T03:37:41.724Z,-3.80
2019-01-13T03:40:24.637Z,-3.70
2019-01-13T03:43:12.150Z,-3.60
2019-01-13T03:45:55.005Z,-3.60
2019-01-13T03:48:39.923Z,-3.50
2019-01-13T03:51:22.541Z,-3.40
2019-01-13T03:54:04.609Z,-3.40
2019-01-13T03:56:47.181Z,-3.30
2019-01-13T03:59:29.309Z,-3.30
2019-01-13T04:02:15.009Z,-3.30
2019-01-13T04:04:57.216Z,-3.20
2019-01-13T04:07:26.841Z,-3.20
2019-01-13T04:10:16.424Z,-3.10
2019-01-13T04:12:58.683Z,-3.10
2019-01-13T04:15:42.131Z,-3.00
2019-01-13T04:18:24.112Z,-3.00
2019-01-13T04:21:07.442Z,-2.90
2019-01-13T04:23:49.539Z,-2.90
2019-01-13T04:26:32.063Z,-2.80
2019-01-13T04:29:15.047Z,-2.80
2019-01-13T04:31:58.211Z,-2.80
2019-01-13T04:34:40.491Z,-2.70
2019-01-13T04:37:23.479Z,-2.70
2019-01-13T04:40:06.044Z,-2.70
2019-01-13T04:42:50.354Z,-2.70
2019-01-13T04:45:32.801Z,-2.60
2019-01-13T04:48:15.981Z,-2.60
2019-01-13T04:51:01.188Z,-2.60
2019-01-13T04:53:44.730Z,-2.60
2019-01-13T04:56:27.367Z,-2.60
2019-01-13T04:59:10.152Z,-2.60
2019-01-13T05:04:39.870Z,-2.60
2019-01-13T05:07:22.767Z,-2.60
2019-01-13T05:10:05.398Z,-2.50
2019-01-13T05:12:48.255Z,-2.50
2019-01-13T05:15:31.258Z,-2.40
2019-01-13T05:18:14.394Z,-2.40
2019-01-13T05:20:57.501Z,-2.30
2019-01-13T05:26:22.113Z,-2.30
2019-01-13T05:29:05.154Z,-2.30
2019-01-13T05:31:48.135Z,-2.20
2019-01-13T05:34:31.022Z,-2.20
2019-01-13T05:37:14.039Z,-2.20
2019-01-13T05:39:56.928Z,-2.10
2019-01-13T05:42:38.895Z,-2.10
2019-01-13T05:45:21.561Z,-2.10
2019-01-13T05:48:04.039Z,-2.10
2019-01-13T05:50:33.770Z,-2.10
2019-01-13T05:53:22.710Z,-2.00
2019-01-13T05:56:04.873Z,-2.00
2019-01-13T05:58:52.719Z,-1.90
2019-01-13T06:01:36.055Z,-1.90
2019-01-13T06:04:18.890Z,-1.90
2019-01-13T06:07:00.927Z,-1.90
2019-01-13T06:09:43.809Z,-1.80
2019-01-13T06:12:26.514Z,-1.80
2019-01-13T06:15:09.518Z,-1.80
2019-01-13T06:17:52.481Z,-1.80
2019-01-13T06:20:34.792Z,-1.80
2019-01-13T06:23:20.347Z,-1.80
2019-01-13T06:26:02.641Z,-1.80
2019-01-13T06:28:45.683Z,-1.80
2019-01-13T06:31:27.942Z,-1.80
2019-01-13T06:34:10.767Z,-1.80
2019-01-13T06:36:53.120Z,-1.80
2019-01-13T06:39:35.930Z,-1.80
2019-01-13T06:42:18.215Z,-1.90
2019-01-13T06:45:03.794Z,-1.90
2019-01-13T06:47:48.965Z,-1.90
2019-01-13T06:50:31.660Z,-2.00
2019-01-13T06:53:13.801Z,-2.00
2019-01-13T06:55:59.562Z,-2.10
2019-01-13T06:58:42.327Z,-2.00
2019-01-13T07:01:25.280Z,-2.00
2019-01-13T07:04:08.328Z,-2.00
2019-01-13T07:06:51.281Z,-2.00
2019-01-13T07:09:34.500Z,-2.00
2019-01-13T07:12:17.612Z,-2.10
2019-01-13T07:15:00.335Z,-2.10
2019-01-13T07:17:43.170Z,-2.10
2019-01-13T07:20:26.407Z,-2.10
2019-01-13T07:23:09.328Z,-2.10
2019-01-13T07:25:52.506Z,-2.10
2019-01-13T07:28:35.557Z,-2.00
2019-01-13T07:31:18.604Z,-2.00
2019-01-13T07:34:01.632Z,-2.00
2019-01-13T07:36:44.658Z,-2.00
2019-01-13T07:39:30.014Z,-2.00
2019-01-13T07:42:12.706Z,-2.00
2019-01-13T07:44:55.757Z,-2.00
2019-01-13T07:47:38.891Z,-2.00
2019-01-13T07:50:21.884Z,-1.90
2019-01-13T07:53:04.986Z,-1.90
2019-01-13T07:55:48.293Z,-1.90
2019-01-13T07:58:34.234Z,-1.90
2019-01-13T08:01:20.114Z,-1.90
2019-01-13T08:04:08.419Z,-1.80
2019-01-13T08:06:51.079Z,-1.80
2019-01-13T08:09:33.707Z,-1.80
2019-01-13T08:12:17.123Z,-1.80
2019-01-13T08:14:59.555Z,-1.80
2019-01-13T08:17:42.910Z,-1.80
2019-01-13T08:20:25.497Z,-1.70
2019-01-13T08:23:10.971Z,-1.70
2019-01-13T08:25:53.109Z,-1.70
2019-01-13T08:28:35.915Z,-1.70
2019-01-13T08:31:19.128Z,-1.70
2019-01-13T08:34:01.918Z,-1.70
2019-01-13T08:36:44.799Z,-1.60
2019-01-13T08:39:27.669Z,-1.60
2019-01-13T08:42:10.678Z,-1.60
2019-01-13T08:44:56.943Z,-1.60
2019-01-13T08:47:43.125Z,-1.60
2019-01-13T08:50:25.983Z,-1.60
2019-01-13T08:53:09.487Z,-1.60
2019-01-13T08:55:52.287Z,-1.60
2019-01-13T08:58:35.319Z,-1.60
2019-01-13T09:01:18.205Z,-1.60
2019-01-13T09:04:00.854Z,-1.50
2019-01-13T09:06:43.944Z,-1.50
2019-01-13T09:09:26.638Z,-1.50
2019-01-13T09:12:09.913Z,-1.50
2019-01-13T09:14:52.619Z,-1.40
2019-01-13T09:17:35.900Z,-1.40
2019-01-13T09:20:18.821Z,-1.40
2019-01-13T09:23:01.715Z,-1.40
2019-01-13T09:25:44.275Z,-1.30
2019-01-13T09:28:26.431Z,-1.30
2019-01-13T09:31:09.739Z,-1.30
2019-01-13T09:33:54.845Z,-1.30
2019-01-13T09:36:37.469Z,-1.30
2019-01-13T09:39:20.542Z,-1.30
2019-01-13T09:42:03.441Z,-1.30
2019-01-13T09:44:47.560Z,-1.30
2019-01-13T09:47:30.629Z,-1.20
2019-01-13T09:50:20.303Z,-1.20
2019-01-13T09:53:02.953Z,-1.10
2019-01-13T09:55:45.454Z,-1.20
2019-01-13T09:58:31.116Z,-1.10
2019-01-13T10:04:03.675Z,-1.10
2019-01-13T10:06:48.043Z,-1.10
2019-01-13T10:09:33.589Z,-1.10
2019-01-13T10:12:19.538Z,-1.10
2019-01-13T10:15:05.002Z,-1.00
2019-01-13T10:17:51.109Z,-1.00
2019-01-13T10:20:34.279Z,-1.00
2019-01-13T10:23:20.106Z,-1.00
2019-01-13T10:26:03.008Z,-0.90
2019-01-13T10:28:46.034Z,-0.90
2019-01-13T10:31:29.029Z,-0.80
2019-01-13T10:34:11.996Z,-0.80
2019-01-13T10:36:55.108Z,-0.70
2019-01-13T10:39:38.218Z,-0.70
2019-01-13T10:42:20.952Z,-0.60
2019-01-13T10:45:08.542Z,-0.60
2019-01-13T10:47:51.166Z,-0.60
2019-01-13T10:50:33.724Z,-0.50
2019-01-13T10:53:16.478Z,-0.40
2019-01-13T10:55:58.959Z,-0.30
2019-01-13T10:58:41.707Z,-0.40
2019-01-13T11:01:24.784Z,-0.30
2019-01-13T11:04:07.130Z,-0.30
2019-01-13T11:06:49.668Z,-0.30
2019-01-13T11:09:31.858Z,-0.30
2019-01-13T11:12:14.624Z,-0.40
2019-01-13T11:14:56.934Z,-0.40
2019-01-13T11:17:42.689Z,-0.40
2019-01-13T11:20:25.337Z,-0.40
2019-01-13T11:23:08.392Z,-0.30
2019-01-13T11:25:51.071Z,-0.30
2019-01-13T11:28:34.287Z,-0.30
2019-01-13T11:31:17.484Z,-0.30
2019-01-13T11:34:00.397Z,-0.20
2019-01-13T11:36:43.351Z,-0.20
2019-01-13T11:39:26.513Z,-0.20
2019-01-13T11:42:09.726Z,-0.20
2019-01-13T11:44:52.622Z,-0.10
2019-01-13T11:47:35.773Z,-0.10
2019-01-13T11:50:18.957Z,-0.10
2019-01-13T11:53:02.506Z,-0.10
2019-01-13T11:55:45.645Z,-0.10
2019-01-13T11:58:28.773Z,-0.10
2019-01-13T12:01:11.622Z,0.00
2019-01-13T12:03:54.183Z,0.00
2019-01-13T12:06:37.279Z,-0.10
2019-01-13T12:09:20.112Z,-0.10
2019-01-13T12:12:03.387Z,-0.10
2019-01-13T12:14:46.638Z,-0.10
2019-01-13T12:17:29.718Z,-0.10
2019-01-13T12:20:12.838Z,-0.10
2019-01-13T12:22:55.210Z,-0.10
2019-01-13T12:25:37.731Z,-0.20
2019-01-13T12:28:20.703Z,-0.10
2019-01-13T12:31:03.510Z,-0.10
2019-01-13T12:33:46.677Z,0.00
2019-01-13T12:36:29.213Z,-0.10
2019-01-13T12:39:16.665Z,-0.10
2019-01-13T12:41:59.214Z,-0.10
2019-01-13T12:44:41.873Z,-0.20
2019-01-13T12:47:24.990Z,-0.20
2019-01-13T12:50:07.932Z,-0.20
2019-01-13T12:52:53.767Z,-0.20
2019-01-13T12:55:36.817Z,-0.10
2019-01-13T12:58:19.551Z,-0.10
2019-01-13T13:01:02.543Z,-0.10
2019-01-13T13:03:45.553Z,-0.10
2019-01-13T13:06:28.551Z,-0.10
2019-01-13T13:09:11.171Z,-0.10
2019-01-13T13:11:54.435Z,-0.10
2019-01-13T13:14:37.626Z,0.00
2019-01-13T13:17:20.286Z,0.00
2019-01-13T13:20:03.320Z,0.10
2019-01-13T13:22:46.169Z,0.10
2019-01-13T13:25:32.067Z,0.10
2019-01-13T13:28:13.474Z,0.10
2019-01-13T13:30:55.691Z,0.10
2019-01-13T13:33:38.897Z,0.20
2019-01-13T13:36:21.931Z,0.30
2019-01-13T13:39:05.414Z,0.30
2019-01-13T13:41:50.573Z,0.30
2019-01-13T13:44:33.564Z,0.30
2019-01-13T13:47:15.657Z,0.30
2019-01-13T13:49:58.503Z,0.30
2019-01-13T13:52:43.457Z,0.30
2019-01-13T13:55:26.017Z,0.40
2019-01-13T13:58:11.245Z,0.40
2019-01-13T14:00:54.620Z,0.40
2019-01-13T14:03:36.973Z,0.50
2019-01-13T14:06:19.761Z,0.50
2019-01-13T14:09:02.138Z,0.60
2019-01-13T14:11:45.646Z,0.60
2019-01-13T14:14:28.129Z,0.60
2019-01-13T14:17:10.895Z,0.70
2019-01-13T14:19:53.277Z,0.70
2019-01-13T14:22:35.939Z,0.70
2019-01-13T14:25:17.930Z,0.70
2019-01-13T14:28:00.747Z,0.70
2019-01-13T14:30:42.969Z,0.80
2019-01-13T14:33:26.210Z,0.80
2019-01-13T14:36:08.333Z,0.80
2019-01-13T14:38:51.014Z,0.90
2019-01-13T14:41:33.130Z,0.90
2019-01-13T14:44:19.426Z,0.90
2019-01-13T14:47:02.788Z,0.90
2019-01-13T14:49:45.382Z,0.90
2019-01-13T14:52:28.656Z,0.90
2019-01-13T14:55:15.710Z,0.90
2019-01-13T14:57:58.499Z,0.90
2019-01-13T15:00:41.352Z,0.90
2019-01-13T15:03:24.137Z,0.90
2019-01-13T15:06:07.453Z,0.90
2019-01-13T15:08:50.534Z,0.90
2019-01-13T15:11:34.556Z,0.90
2019-01-13T15:14:04.159Z,0.90
2019-01-13T15:16:46.770Z,1.00
2019-01-13T15:19:29.861Z,1.00
2019-01-13T15:22:12.920Z,1.00
2019-01-13T15:24:56.020Z,1.00
2019-01-13T15:27:39.185Z,1.00
2019-01-13T15:30:22.115Z,1.00
2019-01-13T15:33:05.174Z,1.00
2019-01-13T15:35:48.163Z,1.00
2019-01-13T15:38:31.272Z,0.90
2019-01-13T15:41:14.401Z,0.90
2019-01-13T15:43:56.610Z,0.90
2019-01-13T15:46:44.276Z,0.80
2019-01-13T15:49:27.026Z,0.80
2019-01-13T15:52:13.152Z,0.80
2019-01-13T15:54:56.081Z,0.80
2019-01-13T16:00:26.936Z,0.80
2019-01-13T16:03:09.894Z,0.80
2019-01-13T16:05:52.757Z,0.80
2019-01-13T16:08:39.077Z,0.90
2019-01-13T16:11:22.028Z,0.80
2019-01-13T16:14:05.075Z,0.90
2019-01-13T16:16:48.259Z,0.90
2019-01-13T16:19:31.151Z,0.90
2019-01-13T16:22:14.465Z,0.90
2019-01-13T16:24:57.438Z,1.00
2019-01-13T16:27:40.533Z,1.00
2019-01-13T16:30:23.167Z,1.00
2019-01-13T16:33:05.959Z,1.00
2019-01-13T16:35:49.310Z,1.10
2019-01-13T16:38:32.320Z,1.00
2019-01-13T16:41:15.613Z,1.00
2019-01-13T16:43:58.825Z,1.10
2019-01-13T16:46:43.578Z,1.10
2019-01-13T16:49:26.762Z,1.10
2019-01-13T16:52:09.533Z,1.10
2019-01-13T16:54:52.431Z,1.10
2019-01-13T16:57:35.391Z,1.00
2019-01-13T17:00:21.445Z,1.00
2019-01-13T17:03:04.707Z,1.00
2019-01-13T17:05:50.524Z,1.00
2019-01-13T17:08:33.534Z,1.10
2019-01-13T17:11:16.434Z,1.10
2019-01-13T17:13:59.926Z,1.10
2019-01-13T17:16:45.563Z,1.10
2019-01-13T17:19:28.766Z,1.10
2019-01-13T17:22:11.727Z,1.10
2019-01-13T17:24:55.304Z,1.20
2019-01-13T17:27:38.224Z,1.20
2019-01-13T17:30:21.635Z,1.20
2019-01-13T17:33:04.521Z,1.20
2019-01-13T17:35:47.464Z,1.30
2019-01-13T17:38:33.449Z,1.30
2019-01-13T17:41:16.230Z,1.30
2019-01-13T17:44:00.423Z,1.30
2019-01-13T17:46:46.312Z,1.30
2019-01-13T17:49:30.357Z,1.30
2019-01-13T17:52:17.869Z,1.30
2019-01-13T17:55:00.736Z,1.40
2019-01-13T17:57:44.438Z,1.40
2019-01-13T18:00:30.378Z,1.40
2019-01-13T18:03:13.319Z,1.40
2019-01-13T18:05:57.627Z,1.40
2019-01-13T18:08:40.677Z,1.40
2019-01-13T18:11:23.749Z,1.40
2019-01-13T18:14:09.808Z,1.40
2019-01-13T18:16:52.917Z,1.50
2019-01-13T18:19:38.675Z,1.50
2019-01-13T18:22:21.637Z,1.50
2019-01-13T18:25:03.920Z,1.50
2019-01-13T18:27:46.646Z,1.50
2019-01-13T18:30:29.108Z,1.50
2019-01-13T18:33:14.613Z,1.50
2019-01-13T18:35:56.917Z,1.50
2019-01-13T18:38:40.268Z,1.60
2019-01-13T18:41:23.133Z,1.60
2019-01-13T18:44:06.349Z,1.60
2019-01-13T18:46:49.581Z,1.60
2019-01-13T18:49:32.679Z,1.60
2019-01-13T18:52:16.016Z,1.60
2019-01-13T18:54:58.914Z,1.60
2019-01-13T18:57:42.454Z,1.60
2019-01-13T19:00:25.949Z,1.60
2019-01-13T19:03:08.403Z,1.60
2019-01-13T19:05:51.318Z,1.60
2019-01-13T19:08:34.573Z,1.60
2019-01-13T19:11:17.625Z,1.60
2019-01-13T19:13:55.968Z,1.60
2019-01-13T19:16:26.358Z,1.50
2019-01-13T19:18:56.351Z,1.50
2019-01-13T19:21:26.088Z,1.40
2019-01-13T19:23:55.771Z,1.40
2019-01-13T19:26:25.380Z,1.30
2019-01-13T19:28:55.053Z,1.30
2019-01-13T19:31:24.710Z,1.20
2019-01-13T19:33:54.459Z,1.20
2019-01-13T19:36:24.257Z,1.20
2019-01-13T19:38:53.857Z,1.20
2019-01-13T19:41:23.632Z,1.10
2019-01-13T19:43:53.279Z,1.10
2019-01-13T19:46:22.952Z,1.10
2019-01-13T19:48:52.634Z,1.10
2019-01-13T19:51:22.274Z,1.10
2019-01-13T19:53:51.904Z,1.00
2019-01-13T19:56:21.618Z,0.90
2019-01-13T19:58:51.238Z,0.90
2019-01-13T20:01:20.805Z,0.90
2019-01-13T20:03:50.439Z,0.90
2019-01-13T20:06:20.124Z,0.80
2019-01-13T20:08:49.752Z,0.80
2019-01-13T20:11:19.428Z,0.70
2019-01-13T20:13:49.041Z,0.70
2019-01-13T20:16:18.673Z,0.70
2019-01-13T20:18:48.278Z,0.70
2019-01-13T20:21:17.964Z,0.70
2019-01-13T20:23:48.231Z,0.60
2019-01-13T20:26:17.816Z,0.60
2019-01-13T20:28:47.400Z,0.50
2019-01-13T20:31:17.062Z,0.50
2019-01-13T20:33:46.794Z,0.50
2019-01-13T20:36:16.320Z,0.50
2019-01-13T20:38:45.901Z,0.40
2019-01-13T20:41:15.557Z,0.40
2019-01-13T20:43:45.269Z,0.40
2019-01-13T20:46:14.857Z,0.40
2019-01-13T20:48:45.577Z,0.40
2019-01-13T20:51:15.289Z,0.40
2019-01-13T20:53:44.946Z,0.40
2019-01-13T20:56:14.520Z,0.30
2019-01-13T20:58:44.166Z,0.30
2019-01-13T21:01:13.740Z,0.30
2019-01-13T21:03:43.429Z,0.30
2019-01-13T21:06:12.984Z,0.20
2019-01-13T21:08:42.712Z,0.20
2019-01-13T21:11:12.396Z,0.20
2019-01-13T21:13:41.974Z,0.20
2019-01-13T21:16:11.596Z,0.20
2019-01-13T21:18:41.256Z,0.10
2019-01-13T21:21:10.853Z,0.10
2019-01-13T21:23:40.550Z,0.10
2019-01-13T21:26:10.134Z,0.10
2019-01-13T21:28:39.656Z,0.00
2019-01-13T21:31:09.256Z,0.00
2019-01-13T21:33:38.892Z,0.00
2019-01-13T21:36:08.560Z,0.00
2019-01-13T21:38:38.168Z,0.00
2019-01-13T21:41:07.779Z,-0.10
2019-01-13T21:43:37.441Z,-0.10
2019-01-13T21:46:07.139Z,-0.10
2019-01-13T21:48:36.706Z,-0.10
2019-01-13T21:51:06.390Z,-0.10
2019-01-13T21:53:35.974Z,-0.20
2019-01-13T21:56:05.561Z,-0.20
2019-01-13T21:58:35.175Z,-0.20
2019-01-13T22:01:06.492Z,-0.20
2019-01-13T22:03:36.097Z,-0.20
2019-01-13T22:06:05.783Z,-0.20
2019-01-13T22:08:35.405Z,-0.30
2019-01-13T22:11:04.959Z,-0.30
2019-01-13T22:13:34.530Z,-0.30
2019-01-13T22:16:04.110Z,-0.40
2019-01-13T22:18:33.849Z,-0.40
2019-01-13T22:21:03.439Z,-0.40
2019-01-13T22:23:33.032Z,-0.40
2019-01-13T22:26:02.704Z,-0.50
2019-01-13T22:28:32.280Z,-0.50
2019-01-13T22:31:01.909Z,-0.50
2019-01-13T22:33:31.493Z,-0.60
2019-01-13T22:36:01.106Z,-0.60
2019-01-13T22:38:30.700Z,-0.70
2019-01-13T22:41:00.286Z,-0.70
2019-01-13T22:43:29.903Z,-0.80
2019-01-13T22:45:59.472Z,-0.80
2019-01-13T22:48:29.007Z,-0.80
2019-01-13T22:50:58.601Z,-0.80
2019-01-13T22:53:28.200Z,-0.90
2019-01-13T22:55:57.808Z,-0.90
2019-01-13T22:58:27.391Z,-1.00
2019-01-13T23:01:07.758Z,-1.00
2019-01-13T23:03:37.529Z,-1.10
2019-01-13T23:06:07.182Z,-1.10
2019-01-13T23:08:36.749Z,-1.20
2019-01-13T23:11:06.378Z,-1.20
2019-01-13T23:13:35.983Z,-1.30
2019-01-13T23:16:05.673Z,-1.30
2019-01-13T23:18:35.246Z,-1.40
2019-01-13T23:21:04.903Z,-1.40
2019-01-13T23:23:34.490Z,-1.40
2019-01-13T23:26:04.092Z,-1.50
2019-01-13T23:28:33.835Z,-1.50
2019-01-13T23:31:03.510Z,-1.60
2019-01-13T23:33:33.190Z,-1.70
2019-01-13T23:36:03.152Z,-1.70
2019-01-13T23:38:32.697Z,-1.70
2019-01-13T23:41:02.278Z,-1.80
2019-01-13T23:43:32.909Z,-1.80
2019-01-13T23:46:02.498Z,-1.90
2019-01-13T23:48:32.097Z,-1.90
2019-01-13T23:51:01.791Z,-2.00
2019-01-13T23:53:31.385Z,-2.00
2019-01-13T23:56:00.897Z,-2.00
2019-01-13T23:58:30.470Z,-2.10
